Time,TemperatureF,DewpointF,PressureIn,WindDirection,WindDirectionDegrees,WindSpeedMPH,WindSpeedGustMPH,Humidity,HourlyPrecipIn,Conditions,Clouds,dailyrainin,SoftwareType,DateUTC
2013-03-29 00:03:00,31.4,29.0,29.97,North,350,0.0,0.0,89,0.00,,,0.00,weatherlink.com 1.10,2013-03-29 04:03:00,
2013-03-29 00:18:00,31.7,29.0,29.97,North,350,0.0,0.0,89,0.00,,,0.00,weatherlink.com 1.10,2013-03-29 04:18:00,
2013-03-29 00:33:00,32.2,29.0,29.98,North,350,0.0,0.0,88,0.00,,,0.00,weatherlink.com 1.10,2013-03-29 04:33:00,
2013-03-29 00:48:00,32.7,29.0,29.97,North,350,0.0,0.0,87,0.00,,,0.00,weatherlink.com 1.10,2013-03-29 04:48:00,
2013-03-29 01:03:00,32.6,29.0,29.98,North,350,0.0,0.0,86,0.00,,,0.00,weatherlink.com 1.10,2013-03-29 05:03:00,
2013-03-29 01:18:00,32.4,29.0,29.98,North,350,0.0,0.0,87,0.00,,,0.00,weatherlink.com 1.10,2013-03-29 05:18:00,
2013-03-29 01:33:00,32.4,29.0,29.97,North,350,0.0,0.0,87,0.00,,,0.00,weatherlink.com 1.10,2013-03-29 05:33:00,
2013-03-29 01:48:00,32.5,29.0,29.97,North,350,0.0,0.0,87,0.00,,,0.00,weatherlink.com 1.10,2013-03-29 05:48:00,
2013-03-29 02:03:00,33.1,29.0,29.97,North,350,0.0,0.0,86,0.00,,,0.00,weatherlink.com 1.10,2013-03-29 06:03:00,
2013-03-29 02:18:00,33.5,30.0,29.96,NNW,328,0.0,3.0,86,0.00,,,0.00,weatherlink.com 1.10,2013-03-29 06:18:00,
2013-03-29 02:33:00,33.2,30.0,29.96,South,177,0.0,2.0,86,0.00,,,0.00,weatherlink.com 1.10,2013-03-29 06:33:00,
2013-03-29 02:48:00,36.0,31.0,29.96,SW,223,5.0,10.0,83,0.00,,,0.00,weatherlink.com 1.10,2013-03-29 06:48:00,
2013-03-29 03:03:00,40.1,32.0,29.95,WSW,238,1.0,4.0,73,0.00,,,0.00,weatherlink.com 1.10,2013-03-29 07:03:00,
2013-03-29 03:18:00,42.3,32.0,29.96,West,273,0.0,5.0,68,0.00,,,0.00,weatherlink.com 1.10,2013-03-29 07:18:00,
2013-03-29 03:33:00,42.5,32.0,29.95,WSW,254,1.0,6.0,67,0.00,,,0.00,weatherlink.com 1.10,2013-03-29 07:33:00,
2013-03-29 03:48:00,42.6,32.0,29.95,WSW,254,0.0,7.0,67,0.00,,,0.00,weatherlink.com 1.10,2013-03-29 07:48:00,
2013-03-29 04:03:00,42.4,32.0,29.95,WNW,282,1.0,8.0,68,0.00,,,0.00,weatherlink.com 1.10,2013-03-29 08:03:00,
2013-03-29 04:18:00,42.3,32.0,29.96,WSW,257,4.0,7.0,68,0.00,,,0.00,weatherlink.com 1.10,2013-03-29 08:18:00,
2013-03-29 04:34:00,42.0,32.0,29.96,WNW,284,2.0,6.0,69,0.00,,,0.00,weatherlink.com 1.10,2013-03-29 08:34:00,
2013-03-29 04:49:00,41.7,32.0,29.96,WNW,284,0.0,-999.0,69,3.16,,,0.00,weatherlink.com 1.10,2013-03-29 08:49:00,
2013-03-29 05:04:00,39.6,32.0,29.96,WNW,299,0.0,0.0,73,0.00,,,0.00,weatherlink.com 1.10,2013-03-29 09:04:00,
2013-03-29 05:18:00,38.0,31.0,29.96,WNW,299,0.0,0.0,77,0.00,,,0.00,weatherlink.com 1.10,2013-03-29 09:18:00,
2013-03-29 05:33:00,36.7,31.0,29.96,WNW,299,0.0,0.0,80,0.00,,,0.00,weatherlink.com 1.10,2013-03-29 09:33:00,
2013-03-29 05:48:00,35.8,31.0,29.96,WNW,299,0.0,0.0,81,0.00,,,0.00,weatherlink.com 1.10,2013-03-29 09:48:00,
2013-03-29 06:03:00,34.9,30.0,29.97,WNW,299,0.0,0.0,83,0.00,,,0.00,weatherlink.com 1.10,2013-03-29 10:03:00,
2013-03-29 06:18:00,34.0,30.0,29.96,NNW,329,0.0,0.0,84,0.00,,,0.00,weatherlink.com 1.10,2013-03-29 10:18:00,
2013-03-29 06:33:00,33.1,29.0,29.97,NNW,329,0.0,0.0,85,0.00,,,0.00,weatherlink.com 1.10,2013-03-29 10:33:00,
2013-03-29 06:49:00,32.3,29.0,29.98,NNW,329,0.0,0.0,87,0.00,,,0.00,weatherlink.com 1.10,2013-03-29 10:49:00,
2013-03-29 07:05:00,31.8,28.0,29.98,NNW,329,0.0,0.0,87,0.00,,,0.00,weatherlink.com 1.10,2013-03-29 11:05:00,
2013-03-29 07:19:00,31.4,28.0,29.98,NNW,329,0.0,0.0,88,0.00,,,0.00,weatherlink.com 1.10,2013-03-29 11:19:00,
2013-03-29 07:34:00,31.5,29.0,29.99,NNW,329,0.0,0.0,89,0.00,,,0.00,weatherlink.com 1.10,2013-03-29 11:34:00,
2013-03-29 07:49:00,32.1,30.0,29.99,NNW,329,0.0,0.0,90,0.00,,,0.00,weatherlink.com 1.10,2013-03-29 11:49:00,
2013-03-29 08:04:00,34.8,32.0,29.98,WNW,301,2.0,6.0,90,0.00,,,0.00,weatherlink.com 1.10,2013-03-29 12:04:00,
2013-03-29 08:19:00,40.2,34.0,29.98,SW,226,3.0,5.0,77,0.00,,,0.00,weatherlink.com 1.10,2013-03-29 12:19:00,
2013-03-29 08:34:00,42.7,34.0,29.98,SW,230,0.0,5.0,70,0.00,,,0.00,weatherlink.com 1.10,2013-03-29 12:34:00,
2013-03-29 08:49:00,43.8,33.0,29.98,NW,309,0.0,7.0,66,0.00,,,0.00,weatherlink.com 1.10,2013-03-29 12:49:00,
2013-03-29 09:05:00,44.4,33.0,29.98,WSW,241,1.0,10.0,65,0.00,,,0.00,weatherlink.com 1.10,2013-03-29 13:05:00,
2013-03-29 09:20:00,45.1,33.0,29.98,SW,231,1.0,5.0,63,0.00,,,0.00,weatherlink.com 1.10,2013-03-29 13:20:00,
2013-03-29 09:35:00,45.5,32.0,29.98,West,262,1.0,5.0,60,0.00,,,0.00,weatherlink.com 1.10,2013-03-29 13:35:00,
2013-03-29 09:50:00,45.5,33.0,29.99,West,264,0.0,1.0,61,0.00,,,0.00,weatherlink.com 1.10,2013-03-29 13:50:00,
2013-03-29 10:05:00,46.1,33.0,29.99,SW,221,4.0,8.0,60,0.00,,,0.00,weatherlink.com 1.10,2013-03-29 14:05:00,
2013-03-29 10:21:00,46.5,33.0,29.99,SSW,212,0.0,4.0,59,0.00,,,0.00,weatherlink.com 1.10,2013-03-29 14:21:00,
2013-03-29 10:36:00,47.3,33.0,29.99,SW,225,0.0,4.0,57,0.00,,,0.00,weatherlink.com 1.10,2013-03-29 14:36:00,
2013-03-29 10:50:00,47.6,32.0,29.99,North,349,3.0,3.0,55,0.00,,,0.00,weatherlink.com 1.10,2013-03-29 14:50:00,
2013-03-29 11:06:00,47.6,32.0,29.99,NE,46,0.0,3.0,56,0.00,,,0.00,weatherlink.com 1.10,2013-03-29 15:06:00,
2013-03-29 11:35:00,49.0,32.0,29.99,NNE,23,0.0,4.0,52,0.00,,,0.00,weatherlink.com 1.10,2013-03-29 15:35:00,
2013-03-29 11:50:00,48.7,32.0,29.98,North,355,2.0,4.0,53,0.00,,,0.00,weatherlink.com 1.10,2013-03-29 15:50:00,
2013-03-29 12:05:00,48.4,32.0,29.98,North,355,0.0,6.0,54,0.00,,,0.00,weatherlink.com 1.10,2013-03-29 16:05:00,
2013-03-29 12:21:00,48.9,32.0,29.98,North,5,0.0,7.0,52,0.00,,,0.00,weatherlink.com 1.10,2013-03-29 16:21:00,
2013-03-29 12:36:00,49.2,32.0,29.98,NE,36,2.0,7.0,52,0.00,,,0.00,weatherlink.com 1.10,2013-03-29 16:36:00,
2013-03-29 12:50:00,49.6,32.0,29.97,NNE,22,0.0,2.0,51,0.00,,,0.00,weatherlink.com 1.10,2013-03-29 16:50:00,
2013-03-29 13:05:00,48.6,31.0,29.97,NNE,28,1.0,3.0,52,0.00,,,0.00,weatherlink.com 1.10,2013-03-29 17:05:00,
2013-03-29 13:20:00,48.4,31.0,29.97,NNE,30,0.0,3.0,52,0.00,,,0.00,weatherlink.com 1.10,2013-03-29 17:20:00,
2013-03-29 13:35:00,48.1,31.0,29.97,NNE,30,0.0,2.0,53,0.00,,,0.00,weatherlink.com 1.10,2013-03-29 17:35:00,
2013-03-29 14:05:00,49.0,31.0,29.96,NW,323,0.0,2.0,50,0.00,,,0.00,weatherlink.com 1.10,2013-03-29 18:05:00,
2013-03-29 14:20:00,48.7,31.0,29.96,NNW,331,5.0,11.0,50,0.00,,,0.00,weatherlink.com 1.10,2013-03-29 18:20:00,
2013-03-29 14:36:00,47.0,32.0,29.96,NW,306,0.0,6.0,56,0.00,,,0.00,weatherlink.com 1.10,2013-03-29 18:36:00,
2013-03-29 14:50:00,47.9,32.0,29.96,NE,50,2.0,7.0,55,0.00,,,0.00,weatherlink.com 1.10,2013-03-29 18:50:00,
2013-03-29 15:06:00,48.0,31.0,29.95,NNE,17,5.0,7.0,53,0.00,,,0.00,weatherlink.com 1.10,2013-03-29 19:06:00,
2013-03-29 15:21:00,48.0,31.0,29.95,NNE,22,0.0,4.0,53,0.00,,,0.00,weatherlink.com 1.10,2013-03-29 19:21:00,
2013-03-29 15:36:00,47.6,31.0,29.96,SW,219,0.0,4.0,53,0.00,,,0.00,weatherlink.com 1.10,2013-03-29 19:36:00,
2013-03-29 16:22:00,47.7,29.0,29.95,NNW,329,0.0,8.0,48,0.00,,,0.00,weatherlink.com 1.10,2013-03-29 20:22:00,
2013-03-29 16:37:00,47.8,29.0,29.95,North,360,2.0,7.0,48,0.00,,,0.00,weatherlink.com 1.10,2013-03-29 20:37:00,
2013-03-29 16:52:00,47.4,29.0,29.95,NW,317,3.0,8.0,49,0.00,,,0.00,weatherlink.com 1.10,2013-03-29 20:52:00,
2013-03-29 17:07:00,46.7,29.0,29.95,WNW,286,0.0,6.0,50,0.00,,,0.00,weatherlink.com 1.10,2013-03-29 21:07:00,
2013-03-29 17:22:00,46.3,28.0,29.95,NNE,20,0.0,5.0,50,0.00,,,0.00,weatherlink.com 1.10,2013-03-29 21:22:00,
2013-03-29 17:37:00,46.1,28.0,29.96,WNW,303,0.0,5.0,50,0.00,,,0.00,weatherlink.com 1.10,2013-03-29 21:37:00,
2013-03-29 17:52:00,46.1,27.0,29.96,NNE,17,0.0,6.0,48,0.00,,,0.00,weatherlink.com 1.10,2013-03-29 21:52:00,
2013-03-29 18:07:00,46.2,28.0,29.96,WNW,284,1.0,10.0,49,0.00,,,0.00,weatherlink.com 1.10,2013-03-29 22:07:00,
2013-03-29 18:22:00,46.3,27.0,29.96,SSW,213,0.0,6.0,48,0.00,,,0.00,weatherlink.com 1.10,2013-03-29 22:22:00,
2013-03-29 18:37:00,46.0,28.0,29.96,WNW,288,3.0,5.0,49,0.00,,,0.00,weatherlink.com 1.10,2013-03-29 22:37:00,
2013-03-29 18:52:00,45.2,27.0,29.97,West,275,4.0,7.0,49,0.00,,,0.00,weatherlink.com 1.10,2013-03-29 22:52:00,
2013-03-29 19:07:00,44.5,27.0,29.97,WSW,252,1.0,2.0,51,0.00,,,0.00,weatherlink.com 1.10,2013-03-29 23:07:00,
2013-03-29 19:22:00,43.7,27.0,29.98,West,272,0.0,4.0,53,0.00,,,0.00,weatherlink.com 1.10,2013-03-29 23:22:00,
2013-03-29 19:37:00,43.0,28.0,29.98,WSW,252,0.0,0.0,55,0.00,,,0.00,weatherlink.com 1.10,2013-03-29 23:37:00,
2013-03-29 19:52:00,42.3,28.0,29.98,WSW,248,0.0,1.0,58,0.00,,,0.00,weatherlink.com 1.10,2013-03-29 23:52:00,
2013-03-29 20:07:00,41.6,28.0,29.98,WNW,292,0.0,5.0,59,0.00,,,0.00,weatherlink.com 1.10,2013-03-30 00:07:00,
2013-03-29 20:22:00,41.1,28.0,29.99,WSW,238,0.0,1.0,61,0.00,,,0.00,weatherlink.com 1.10,2013-03-30 00:22:00,
2013-03-29 20:37:00,40.5,28.0,29.99,WSW,241,0.0,0.0,62,0.00,,,0.00,weatherlink.com 1.10,2013-03-30 00:37:00,
2013-03-29 20:52:00,40.0,29.0,29.99,WSW,241,0.0,2.0,64,0.00,,,0.00,weatherlink.com 1.10,2013-03-30 00:52:00,
2013-03-29 21:08:00,39.8,28.0,30.00,NW,306,0.0,6.0,64,0.00,,,0.00,weatherlink.com 1.10,2013-03-30 01:08:00,
2013-03-29 21:23:00,39.4,28.0,30.00,SW,214,0.0,-999.0,65,-99.99,,,0.00,weatherlink.com 1.10,2013-03-30 01:23:00,
2013-03-29 21:37:00,38.9,28.0,30.00,SW,224,0.0,0.0,66,0.00,,,0.00,weatherlink.com 1.10,2013-03-30 01:37:00,
2013-03-29 21:52:00,38.3,29.0,30.00,SW,224,0.0,0.0,68,0.00,,,0.00,weatherlink.com 1.10,2013-03-30 01:52:00,
2013-03-29 22:07:00,36.6,28.0,30.00,NNW,336,0.0,0.0,71,0.00,,,0.00,weatherlink.com 1.10,2013-03-30 02:07:00,
2013-03-29 22:22:00,35.8,28.0,30.00,NNW,336,0.0,0.0,74,0.00,,,0.00,weatherlink.com 1.10,2013-03-30 02:22:00,
2013-03-29 22:38:00,35.4,28.0,30.00,NNW,336,0.0,0.0,74,0.00,,,0.00,weatherlink.com 1.10,2013-03-30 02:38:00,
2013-03-29 22:53:00,35.3,28.0,30.00,NNW,336,0.0,0.0,76,0.00,,,0.00,weatherlink.com 1.10,2013-03-30 02:53:00,
2013-03-29 23:08:00,34.2,28.0,30.01,NNW,336,0.0,0.0,78,0.00,,,0.00,weatherlink.com 1.10,2013-03-30 03:08:00,
2013-03-29 23:23:00,33.3,28.0,30.00,NNW,336,0.0,0.0,80,0.00,,,0.00,weatherlink.com 1.10,2013-03-30 03:23:00,
2013-03-29 23:38:00,32.7,28.0,30.00,NNW,336,0.0,0.0,82,0.00,,,0.00,weatherlink.com 1.10,2013-03-30 03:38:00,
2013-03-29 23:53:00,32.2,28.0,30.00,NNW,336,0.0,0.0,83,0.00,,,0.00,weatherlink.com 1.10,2013-03-30 03:53:00,